Terminal Aerodrome Forecast
Issued by NWS Duluth, MN

Home | Current Version | Previous Version | Text Only | Print | Product List | Glossary On
Versions: 1 2 3 4 5 6 7 8 9 10 11 12 13 14 15 16 17 18 19 20 21 22 23 24 25 26 27 28
000
FTUS43 KDLH 040534
TAFDLH
TAF
KDLH 040534Z 0406/0506 07005KT P6SM SKC
     FM040900 07005KT 1SM BR SCT002
      TEMPO 0410/0413 1/2SM FG OVC002
     FM041600 08010KT P6SM SCT002
     FM041800 08010KT P6SM SCT035
     FM050100 09009KT P6SM VCSH BKN035=

USA.gov is the U.S. government's official web portal to all federal, state and local government web resources and services.